createdAt,value
2019-02-24T00:00:55.571Z,18.7
2019-02-24T00:01:56.274Z,23.3
2019-02-24T00:02:56.997Z,18.7
2019-02-24T00:03:57.696Z,19.5
2019-02-24T00:04:58.653Z,18.5
2019-02-24T00:05:59.367Z,20.2
2019-02-24T00:07:00.079Z,20.6
2019-02-24T00:08:00.799Z,21.8
2019-02-24T00:09:01.509Z,22.8
2019-02-24T00:10:02.222Z,22.2
2019-02-24T00:11:02.939Z,21.7
2019-02-24T00:12:03.640Z,22.1
2019-02-24T00:13:04.346Z,20.1
2019-02-24T00:14:05.055Z,22.0
2019-02-24T00:15:05.765Z,20.4
2019-02-24T00:16:06.477Z,22.3
2019-02-24T00:17:07.187Z,23.6
2019-02-24T00:18:07.908Z,24.5
2019-02-24T00:19:08.720Z,21.4
2019-02-24T00:20:09.433Z,22.7
2019-02-24T00:21:10.142Z,20.3
2019-02-24T00:22:10.867Z,23.1
2019-02-24T00:23:11.582Z,22.6
2019-02-24T00:24:12.402Z,21.0
2019-02-24T00:25:13.110Z,21.0
2019-02-24T00:26:13.826Z,21.1
2019-02-24T00:27:14.543Z,24.2
2019-02-24T00:28:15.243Z,23.5
2019-02-24T00:29:16.059Z,21.6
2019-02-24T00:30:16.771Z,21.6
2019-02-24T00:31:17.469Z,21.0
2019-02-24T00:32:18.175Z,26.3
2019-02-24T00:33:18.885Z,21.0
2019-02-24T00:34:19.611Z,19.8
2019-02-24T00:35:20.354Z,22.6
2019-02-24T00:36:21.107Z,20.5
2019-02-24T00:37:21.782Z,19.7
2019-02-24T00:38:22.486Z,21.7
2019-02-24T00:39:23.188Z,23.7
2019-02-24T00:40:23.910Z,23.3
2019-02-24T00:41:24.614Z,22.3
2019-02-24T00:42:25.323Z,25.4
2019-02-24T00:43:26.040Z,25.5
2019-02-24T00:44:26.749Z,26.8
2019-02-24T00:45:27.460Z,26.9
2019-02-24T00:46:28.165Z,27.6
2019-02-24T00:47:28.913Z,24.3
2019-02-24T00:48:29.606Z,24.9
2019-02-24T00:49:30.306Z,25.6
2019-02-24T00:50:31.011Z,23.5
2019-02-24T00:51:31.763Z,23.0
2019-02-24T00:52:32.487Z,24.1
2019-02-24T00:53:33.197Z,22.5
2019-02-24T00:54:33.901Z,23.6
2019-02-24T00:55:34.624Z,25.8
2019-02-24T00:56:35.331Z,21.9
2019-02-24T00:57:36.035Z,19.8
2019-02-24T00:58:36.740Z,19.7
2019-02-24T00:59:37.454Z,19.1
2019-02-24T01:00:38.168Z,20.9
2019-02-24T01:01:38.873Z,18.4
2019-02-24T01:02:39.586Z,20.8
2019-02-24T01:03:40.302Z,19.2
2019-02-24T01:04:41.016Z,17.0
2019-02-24T01:05:41.715Z,18.2
2019-02-24T01:06:42.426Z,16.8
2019-02-24T01:07:43.131Z,16.2
2019-02-24T01:08:44.089Z,15.1
2019-02-24T01:09:44.806Z,16.3
2019-02-24T01:10:45.508Z,17.3
2019-02-24T01:11:46.225Z,15.1
2019-02-24T01:12:46.947Z,17.1
2019-02-24T01:13:47.907Z,16.1
2019-02-24T01:14:48.609Z,18.5
2019-02-24T01:15:49.329Z,19.6
2019-02-24T01:16:50.301Z,14.7
2019-02-24T01:17:51.009Z,16.7
2019-02-24T01:18:51.765Z,14.0
2019-02-24T01:19:52.474Z,15.4
2019-02-24T01:20:53.188Z,15.1
2019-02-24T01:21:53.912Z,17.1
2019-02-24T01:22:54.624Z,13.8
2019-02-24T01:23:55.392Z,15.5
2019-02-24T01:24:56.096Z,17.8
2019-02-24T01:25:56.805Z,15.5
2019-02-24T01:26:57.517Z,15.9
2019-02-24T01:27:58.235Z,16.9
2019-02-24T01:28:58.959Z,15.8
2019-02-24T01:29:59.672Z,14.5
2019-02-24T01:31:00.395Z,14.0
2019-02-24T01:32:01.108Z,15.7
2019-02-24T01:33:01.825Z,13.6
2019-02-24T01:34:02.534Z,13.8
2019-02-24T01:35:03.304Z,14.5
2019-02-24T01:36:04.268Z,15.0
2019-02-24T01:37:04.981Z,14.0
2019-02-24T01:38:05.696Z,14.3
2019-02-24T01:39:06.406Z,16.1
2019-02-24T01:40:07.112Z,13.9
2019-02-24T01:41:07.822Z,13.9
2019-02-24T01:42:08.523Z,14.1
2019-02-24T01:43:09.244Z,13.2
2019-02-24T01:44:10.203Z,13.6
2019-02-24T01:45:10.912Z,13.5
2019-02-24T01:46:11.626Z,13.8
2019-02-24T01:47:12.337Z,13.3
2019-02-24T01:48:13.049Z,15.7
2019-02-24T01:49:13.751Z,13.7
2019-02-24T01:50:14.476Z,13.4
2019-02-24T01:51:15.181Z,14.3
2019-02-24T01:52:15.897Z,14.0
2019-02-24T01:53:16.613Z,13.6
2019-02-24T01:54:17.318Z,14.1
2019-02-24T01:55:18.021Z,14.8
2019-02-24T01:56:18.734Z,13.6
2019-02-24T01:57:19.450Z,16.0
2019-02-24T01:58:20.164Z,14.4
2019-02-24T01:59:20.875Z,15.1
2019-02-24T02:00:21.589Z,14.3
2019-02-24T02:01:22.291Z,15.5
2019-02-24T02:02:23.002Z,16.2
2019-02-24T02:03:23.712Z,17.0
2019-02-24T02:04:24.428Z,14.5
2019-02-24T02:05:25.130Z,14.5
2019-02-24T02:06:25.847Z,14.1
2019-02-24T02:07:26.549Z,14.1
2019-02-24T02:08:27.354Z,13.5
2019-02-24T02:09:28.061Z,16.8
2019-02-24T02:10:28.772Z,14.9
2019-02-24T02:11:29.476Z,14.7
2019-02-24T02:12:30.189Z,13.3
2019-02-24T02:13:30.906Z,13.9
2019-02-24T02:14:31.617Z,14.0
2019-02-24T02:15:32.337Z,14.7
2019-02-24T02:16:33.059Z,14.2
2019-02-24T02:17:33.770Z,15.5
2019-02-24T02:18:34.486Z,15.8
2019-02-24T02:19:35.191Z,16.9
2019-02-24T02:20:35.915Z,14.4
2019-02-24T02:21:36.631Z,15.3
2019-02-24T02:22:37.352Z,16.7
2019-02-24T02:23:38.065Z,14.8
2019-02-24T02:24:38.768Z,15.8
2019-02-24T02:25:39.491Z,14.7
2019-02-24T02:26:40.199Z,14.6
2019-02-24T02:27:40.917Z,16.6
2019-02-24T02:28:43.972Z,15.9
2019-02-24T02:29:42.359Z,14.3
2019-02-24T02:30:43.064Z,14.8
2019-02-24T02:31:43.781Z,15.3
2019-02-24T02:32:44.492Z,14.6
2019-02-24T02:33:45.205Z,15.9
2019-02-24T02:34:45.908Z,16.7
2019-02-24T02:35:46.626Z,15.8
2019-02-24T02:36:47.329Z,17.3
2019-02-24T02:37:48.048Z,16.5
2019-02-24T02:38:48.756Z,17.6
2019-02-24T02:39:49.567Z,15.8
2019-02-24T02:40:50.279Z,14.7
2019-02-24T02:41:50.989Z,17.1
2019-02-24T02:42:51.703Z,15.1
2019-02-24T02:43:52.671Z,17.4
2019-02-24T02:44:53.366Z,15.2
2019-02-24T02:45:54.089Z,15.3
2019-02-24T02:46:54.812Z,17.7
2019-02-24T02:47:55.530Z,18.2
2019-02-24T02:48:56.251Z,17.8
2019-02-24T02:49:56.969Z,22.0
2019-02-24T02:50:57.681Z,17.2
2019-02-24T02:51:58.489Z,15.4
2019-02-24T02:52:59.185Z,15.9
2019-02-24T02:53:59.898Z,16.2
2019-02-24T02:55:00.608Z,15.9
2019-02-24T02:56:01.310Z,16.8
2019-02-24T02:57:02.081Z,15.6
2019-02-24T02:58:02.794Z,16.0
2019-02-24T02:59:03.504Z,17.7
2019-02-24T03:00:04.223Z,18.0
2019-02-24T03:01:04.937Z,18.9
2019-02-24T03:02:05.941Z,19.4
2019-02-24T03:03:06.647Z,17.8
2019-02-24T03:04:07.372Z,17.1
2019-02-24T03:05:08.081Z,17.1
2019-02-24T03:06:08.794Z,17.1
2019-02-24T03:07:09.502Z,16.9
2019-02-24T03:08:10.261Z,16.9
2019-02-24T03:09:11.231Z,17.7
2019-02-24T03:10:11.944Z,16.8
2019-02-24T03:11:12.659Z,21.0
2019-02-24T03:12:13.369Z,15.8
2019-02-24T03:13:14.188Z,16.7
2019-02-24T03:14:14.903Z,16.9
2019-02-24T03:15:15.868Z,16.8
2019-02-24T03:16:16.571Z,15.6
2019-02-24T03:17:17.546Z,15.9
2019-02-24T03:18:18.259Z,19.3
2019-02-24T03:19:18.966Z,15.8
2019-02-24T03:20:19.677Z,18.1
2019-02-24T03:21:20.438Z,16.9
2019-02-24T03:22:21.136Z,17.8
2019-02-24T03:23:21.861Z,17.9
2019-02-24T03:24:22.566Z,17.8
2019-02-24T03:25:23.273Z,18.1
2019-02-24T03:26:23.990Z,17.4
2019-02-24T03:27:24.698Z,17.9
2019-02-24T03:28:25.404Z,18.4
2019-02-24T03:29:26.107Z,19.1
2019-02-24T03:30:26.834Z,17.8
2019-02-24T03:31:27.646Z,15.2
2019-02-24T03:32:28.353Z,16.5
2019-02-24T03:33:29.056Z,15.9
2019-02-24T03:34:29.768Z,15.4
2019-02-24T03:35:30.504Z,15.1
2019-02-24T03:36:31.211Z,15.7
2019-02-24T03:37:31.921Z,19.7
2019-02-24T03:38:32.640Z,18.0
2019-02-24T03:39:33.356Z,15.0
2019-02-24T03:40:34.056Z,16.2
2019-02-24T03:41:34.921Z,16.4
2019-02-24T03:42:35.634Z,17.1
2019-02-24T03:43:36.359Z,19.6
2019-02-24T03:44:37.063Z,17.7
2019-02-24T03:45:37.778Z,15.4
2019-02-24T03:46:38.567Z,15.6
2019-02-24T03:47:39.289Z,15.7
2019-02-24T03:48:40.013Z,16.2
2019-02-24T03:49:40.724Z,15.2
2019-02-24T03:50:41.453Z,16.0
2019-02-24T03:51:42.262Z,15.8
2019-02-24T03:52:42.973Z,17.7
2019-02-24T03:53:43.685Z,16.4
2019-02-24T03:54:44.390Z,16.3
2019-02-24T03:55:45.102Z,18.5
2019-02-24T03:56:45.870Z,16.9
2019-02-24T03:57:46.589Z,17.9
2019-02-24T03:58:47.290Z,17.0
2019-02-24T03:59:48.018Z,18.5
2019-02-24T04:00:48.755Z,16.1
2019-02-24T04:01:49.467Z,16.1
2019-02-24T04:02:50.177Z,19.3
2019-02-24T04:03:50.895Z,16.1
2019-02-24T04:04:51.606Z,18.2
2019-02-24T04:05:52.318Z,18.3
2019-02-24T04:06:53.020Z,17.0
2019-02-24T04:07:53.722Z,18.0
2019-02-24T04:08:54.445Z,16.0
2019-02-24T04:09:55.195Z,15.7
2019-02-24T04:10:55.911Z,16.0
2019-02-24T04:11:56.620Z,18.5
2019-02-24T04:12:57.587Z,19.2
2019-02-24T04:13:58.291Z,17.5
2019-02-24T04:14:59.105Z,19.1
2019-02-24T04:15:59.820Z,18.8
2019-02-24T04:17:00.770Z,16.9
2019-02-24T04:18:01.496Z,18.9
2019-02-24T04:19:02.206Z,16.0
2019-02-24T04:20:02.917Z,18.3
2019-02-24T04:21:03.625Z,18.9
2019-02-24T04:22:04.340Z,18.3
2019-02-24T04:23:05.309Z,19.7
2019-02-24T04:24:06.014Z,16.9
2019-02-24T04:25:06.722Z,18.6
2019-02-24T04:26:07.430Z,19.3
2019-02-24T04:27:08.148Z,17.7
2019-02-24T04:28:09.118Z,18.4
2019-02-24T04:29:09.834Z,17.4
2019-02-24T04:30:10.541Z,16.3
2019-02-24T04:31:11.243Z,17.1
2019-02-24T04:32:11.985Z,19.2
2019-02-24T04:33:12.695Z,18.3
2019-02-24T04:34:13.407Z,18.3
2019-02-24T04:35:14.126Z,17.8
2019-02-24T04:36:14.829Z,18.2
2019-02-24T04:37:15.537Z,22.0
2019-02-24T04:38:16.240Z,16.5
2019-02-24T04:39:17.191Z,18.3
2019-02-24T04:40:17.900Z,17.1
2019-02-24T04:41:18.604Z,17.6
2019-02-24T04:42:19.319Z,18.1
2019-02-24T04:43:20.085Z,19.7
2019-02-24T04:44:20.789Z,16.2
2019-02-24T04:45:21.515Z,15.2
2019-02-24T04:46:22.229Z,17.6
2019-02-24T04:47:22.950Z,19.1
2019-02-24T04:48:23.674Z,19.3
2019-02-24T04:49:24.388Z,18.3
2019-02-24T04:50:25.109Z,18.4
2019-02-24T04:51:25.826Z,18.9
2019-02-24T04:52:26.547Z,18.2
2019-02-24T04:53:27.259Z,17.2
2019-02-24T04:54:27.963Z,17.6
2019-02-24T04:55:28.674Z,18.5
2019-02-24T04:56:29.629Z,19.2
2019-02-24T04:57:30.343Z,15.3
2019-02-24T04:58:31.042Z,18.2
2019-02-24T04:59:35.018Z,17.3
2019-02-24T05:00:32.466Z,17.0
2019-02-24T05:01:33.184Z,17.5
2019-02-24T05:02:33.890Z,19.1
2019-02-24T05:03:34.593Z,19.0
2019-02-24T05:04:35.302Z,16.7
2019-02-24T05:05:36.018Z,18.8
2019-02-24T05:06:36.720Z,18.7
2019-02-24T05:07:37.427Z,18.0
2019-02-24T05:08:38.139Z,19.1
2019-02-24T05:09:38.869Z,19.7
2019-02-24T05:10:39.551Z,19.4
2019-02-24T05:11:40.258Z,16.6
2019-02-24T05:12:40.970Z,18.5
2019-02-24T05:13:41.684Z,17.5
2019-02-24T05:14:42.419Z,20.6
2019-02-24T05:15:43.117Z,20.5
2019-02-24T05:16:43.847Z,19.9
2019-02-24T05:17:44.550Z,18.8
2019-02-24T05:18:45.255Z,17.6
2019-02-24T05:19:45.977Z,18.5
2019-02-24T05:20:46.686Z,20.4
2019-02-24T05:21:47.406Z,17.7
2019-02-24T05:22:48.124Z,17.4
2019-02-24T05:23:48.832Z,19.0
2019-02-24T05:24:49.584Z,19.2
2019-02-24T05:25:50.301Z,18.4
2019-02-24T05:26:51.011Z,20.0
2019-02-24T05:27:51.723Z,18.9
2019-02-24T05:28:52.437Z,19.7
2019-02-24T05:29:53.147Z,16.3
2019-02-24T05:30:53.861Z,21.1
2019-02-24T05:31:54.581Z,21.4
2019-02-24T05:32:55.302Z,20.6
2019-02-24T05:33:56.004Z,20.6
2019-02-24T05:34:56.713Z,19.4
2019-02-24T05:35:57.428Z,21.3
2019-02-24T05:36:58.151Z,20.6
2019-02-24T05:37:58.852Z,22.6
2019-02-24T05:38:59.573Z,19.9
2019-02-24T05:40:00.394Z,19.9
2019-02-24T05:41:00.990Z,21.7
2019-02-24T05:42:01.706Z,19.9
2019-02-24T05:43:02.427Z,20.4
2019-02-24T05:44:03.134Z,21.0
2019-02-24T05:45:03.970Z,19.0
2019-02-24T05:46:04.679Z,19.3
2019-02-24T05:47:05.435Z,21.9
2019-02-24T05:48:06.103Z,22.2
2019-02-24T05:49:06.808Z,26.7
2019-02-24T05:50:07.519Z,21.7
2019-02-24T05:51:08.282Z,19.6
2019-02-24T05:52:08.995Z,23.1
2019-02-24T05:53:09.713Z,23.1
2019-02-24T05:54:10.421Z,20.9
2019-02-24T05:55:11.145Z,20.5
2019-02-24T05:56:11.847Z,20.0
2019-02-24T05:57:12.607Z,23.2
2019-02-24T05:58:13.313Z,18.6
2019-02-24T05:59:14.024Z,20.0
2019-02-24T06:00:14.738Z,20.7
2019-02-24T06:01:15.465Z,20.3
2019-02-24T06:02:16.177Z,20.0
2019-02-24T06:03:16.908Z,20.0
2019-02-24T06:04:17.617Z,22.6
2019-02-24T06:05:18.324Z,23.3
2019-02-24T06:06:19.033Z,20.0
2019-02-24T06:07:19.742Z,19.6
2019-02-24T06:08:20.461Z,20.8
2019-02-24T06:09:21.167Z,19.0
2019-02-24T06:10:21.875Z,20.9
2019-02-24T06:11:22.589Z,18.9
2019-02-24T06:12:23.293Z,16.6
2019-02-24T06:13:23.999Z,20.7
2019-02-24T06:14:24.761Z,18.6
2019-02-24T06:15:25.489Z,19.8
2019-02-24T06:16:26.207Z,19.7
2019-02-24T06:17:27.079Z,19.2
2019-02-24T06:18:27.790Z,23.2
2019-02-24T06:19:28.509Z,21.1
2019-02-24T06:20:29.217Z,22.3
2019-02-24T06:21:29.942Z,20.8
2019-02-24T06:22:30.663Z,23.5
2019-02-24T06:23:31.374Z,21.5
2019-02-24T06:24:32.084Z,20.0
2019-02-24T06:25:32.794Z,21.3
2019-02-24T06:26:33.517Z,22.9
2019-02-24T06:27:34.222Z,20.2
2019-02-24T06:28:35.176Z,21.2
2019-02-24T06:29:35.958Z,23.2
2019-02-24T06:30:36.664Z,19.7
2019-02-24T06:31:37.394Z,19.9
2019-02-24T06:32:38.102Z,20.9
2019-02-24T06:33:38.810Z,21.9
2019-02-24T06:34:39.519Z,22.8
2019-02-24T06:35:40.242Z,21.4
2019-02-24T06:36:40.962Z,22.3
2019-02-24T06:37:41.672Z,23.2
2019-02-24T06:38:42.400Z,21.8
2019-02-24T06:39:43.119Z,27.1
2019-02-24T06:40:43.826Z,20.3
2019-02-24T06:41:44.541Z,18.4
2019-02-24T06:42:45.252Z,21.9
2019-02-24T06:43:45.968Z,19.5
2019-02-24T06:44:46.686Z,20.0
2019-02-24T06:45:47.450Z,19.1
2019-02-24T06:46:48.164Z,18.5
2019-02-24T06:47:48.883Z,15.9
2019-02-24T06:48:49.605Z,17.5
2019-02-24T06:49:50.323Z,17.6
2019-02-24T06:50:51.038Z,18.4
2019-02-24T06:51:51.757Z,19.3
2019-02-24T06:52:52.471Z,20.9
2019-02-24T06:53:53.188Z,21.4
2019-02-24T06:54:53.895Z,20.0
2019-02-24T06:55:54.600Z,18.8
2019-02-24T06:56:55.317Z,18.3
2019-02-24T06:57:56.035Z,18.5
2019-02-24T06:58:56.757Z,18.2
2019-02-24T06:59:57.476Z,15.0
2019-02-24T07:00:58.181Z,15.9
2019-02-24T07:01:59.144Z,18.4
2019-02-24T07:02:59.872Z,16.7
2019-02-24T07:04:00.592Z,15.6
2019-02-24T07:05:01.311Z,15.9
2019-02-24T07:06:02.013Z,14.1
2019-02-24T07:07:02.776Z,13.6
2019-02-24T07:08:03.511Z,13.8
2019-02-24T07:09:04.228Z,14.4
2019-02-24T07:10:04.946Z,14.0
2019-02-24T07:11:05.657Z,15.8
2019-02-24T07:12:06.425Z,16.2
2019-02-24T07:13:07.145Z,16.4
2019-02-24T07:14:07.877Z,15.1
2019-02-24T07:15:08.578Z,13.2
2019-02-24T07:16:09.299Z,12.9
2019-02-24T07:17:10.033Z,11.7
2019-02-24T07:18:10.744Z,14.1
2019-02-24T07:19:11.460Z,12.8
2019-02-24T07:20:12.200Z,13.9
2019-02-24T07:21:12.930Z,13.7
2019-02-24T07:22:13.741Z,13.7
2019-02-24T07:23:14.462Z,14.0
2019-02-24T07:24:15.171Z,12.7
2019-02-24T07:25:15.883Z,12.4
2019-02-24T07:26:16.611Z,13.4
2019-02-24T07:27:17.313Z,13.0
2019-02-24T07:28:18.031Z,12.9
2019-02-24T07:29:18.741Z,12.9
2019-02-24T07:30:23.518Z,13.1
2019-02-24T07:31:20.177Z,13.6
2019-02-24T07:32:20.927Z,14.7
2019-02-24T07:33:21.735Z,13.3
2019-02-24T07:34:22.463Z,12.6
2019-02-24T07:35:23.186Z,13.4
2019-02-24T07:36:23.899Z,15.6
2019-02-24T07:37:24.600Z,13.0
2019-02-24T07:38:25.325Z,14.2
2019-02-24T07:39:26.095Z,14.6
2019-02-24T07:40:26.816Z,13.8
2019-02-24T07:41:27.537Z,14.6
2019-02-24T07:42:28.252Z,14.3
2019-02-24T07:43:29.042Z,14.9
2019-02-24T07:44:29.749Z,16.8
2019-02-24T07:45:30.464Z,23.9
2019-02-24T07:46:31.178Z,12.2
2019-02-24T07:47:32.149Z,15.9
2019-02-24T07:48:32.866Z,15.1
2019-02-24T07:49:33.581Z,13.9
2019-02-24T07:50:34.407Z,13.1
2019-02-24T07:51:35.138Z,13.0
2019-02-24T07:52:35.857Z,12.7
2019-02-24T07:53:36.593Z,14.3
2019-02-24T07:54:37.309Z,15.0
2019-02-24T07:55:38.073Z,13.9
2019-02-24T07:56:38.802Z,12.5
2019-02-24T07:57:39.518Z,12.8
2019-02-24T07:58:40.232Z,13.2
2019-02-24T07:59:40.959Z,12.2
2019-02-24T08:00:41.671Z,13.1
2019-02-24T08:01:42.650Z,25.4
2019-02-24T08:02:43.132Z,17.0
2019-02-24T08:03:43.836Z,20.1
2019-02-24T08:04:44.546Z,22.2
2019-02-24T08:05:45.263Z,22.9
2019-02-24T08:06:46.032Z,24.2
2019-02-24T08:07:46.745Z,20.6
2019-02-24T08:08:47.469Z,12.5
2019-02-24T08:09:48.174Z,12.8
2019-02-24T08:10:48.902Z,13.3
2019-02-24T08:11:49.668Z,12.5
2019-02-24T08:12:50.382Z,14.0
2019-02-24T08:13:51.106Z,12.5
2019-02-24T08:14:51.836Z,12.9
2019-02-24T08:15:52.546Z,13.2
2019-02-24T08:16:53.523Z,16.3
2019-02-24T08:17:54.243Z,15.2
2019-02-24T08:18:54.958Z,13.4
2019-02-24T08:19:55.672Z,12.4
2019-02-24T08:20:56.473Z,16.6
2019-02-24T08:21:57.106Z,13.8
2019-02-24T08:22:57.835Z,13.9
2019-02-24T08:23:58.543Z,13.9
2019-02-24T08:24:59.254Z,14.2
2019-02-24T08:25:59.972Z,17.1
2019-02-24T08:27:00.945Z,15.3
2019-02-24T08:28:01.660Z,13.5
2019-02-24T08:29:02.380Z,14.8
2019-02-24T08:30:03.097Z,13.9
2019-02-24T08:31:03.815Z,13.9
2019-02-24T08:32:04.532Z,13.6
2019-02-24T08:33:05.251Z,13.5
2019-02-24T08:34:06.037Z,14.2
2019-02-24T08:35:06.740Z,16.0
2019-02-24T08:36:07.461Z,15.2
2019-02-24T08:37:08.189Z,16.2
2019-02-24T08:38:08.900Z,14.4
2019-02-24T08:39:09.668Z,15.4
2019-02-24T08:40:10.384Z,14.7
2019-02-24T08:41:11.108Z,14.9
2019-02-24T08:42:11.834Z,13.3
2019-02-24T08:43:12.598Z,15.2
2019-02-24T08:44:13.407Z,12.3
2019-02-24T08:45:14.129Z,13.0
2019-02-24T08:46:14.854Z,16.3
2019-02-24T08:47:15.582Z,12.5
2019-02-24T08:48:16.312Z,13.6
2019-02-24T08:49:17.022Z,13.9
2019-02-24T08:50:17.747Z,12.8
2019-02-24T08:51:18.463Z,14.8
2019-02-24T08:52:19.192Z,13.3
2019-02-24T08:53:19.907Z,12.5
2019-02-24T08:54:20.624Z,13.2
2019-02-24T08:55:21.598Z,13.2
2019-02-24T08:56:22.315Z,13.2
2019-02-24T08:57:23.044Z,12.2
2019-02-24T08:58:23.759Z,13.3
2019-02-24T08:59:24.729Z,12.3
2019-02-24T09:00:25.458Z,12.4
2019-02-24T09:01:26.184Z,13.5
2019-02-24T09:02:26.900Z,13.1
2019-02-24T09:03:27.620Z,12.2
2019-02-24T09:04:28.398Z,11.9
2019-02-24T09:05:29.114Z,13.5
2019-02-24T09:06:29.836Z,13.6
2019-02-24T09:07:30.563Z,12.9
2019-02-24T09:08:31.281Z,12.8
2019-02-24T09:09:32.010Z,12.6
2019-02-24T09:10:32.728Z,12.6
2019-02-24T09:11:33.464Z,12.3
2019-02-24T09:12:34.181Z,12.5
2019-02-24T09:13:34.909Z,10.9
2019-02-24T09:14:35.628Z,13.4
2019-02-24T09:15:36.756Z,14.1
2019-02-24T09:16:37.483Z,12.3
2019-02-24T09:17:38.271Z,12.5
2019-02-24T09:18:38.939Z,12.6
2019-02-24T09:19:39.661Z,12.2
2019-02-24T09:20:40.388Z,12.9
2019-02-24T09:21:41.121Z,14.3
2019-02-24T09:22:42.097Z,14.3
2019-02-24T09:23:42.818Z,12.7
2019-02-24T09:24:43.554Z,12.4
2019-02-24T09:25:44.270Z,12.8
2019-02-24T09:26:45.106Z,12.6
2019-02-24T09:27:45.830Z,13.3
2019-02-24T09:28:46.555Z,12.1
2019-02-24T09:29:47.282Z,11.8
2019-02-24T09:30:48.006Z,12.5
2019-02-24T09:31:48.876Z,12.9
2019-02-24T09:32:49.846Z,12.0
2019-02-24T09:33:50.569Z,13.0
2019-02-24T09:34:51.285Z,12.4
2019-02-24T09:35:52.008Z,13.0
2019-02-24T09:36:52.886Z,11.9
2019-02-24T09:37:53.605Z,11.7
2019-02-24T09:38:54.328Z,12.3
2019-02-24T09:39:55.049Z,12.1
2019-02-24T09:40:55.778Z,11.9
2019-02-24T09:41:56.662Z,12.3
2019-02-24T09:42:57.647Z,11.6
2019-02-24T09:43:58.378Z,11.7
2019-02-24T09:44:59.104Z,11.0
2019-02-24T09:45:59.829Z,10.9
2019-02-24T09:47:00.556Z,13.9
2019-02-24T09:48:01.281Z,10.9
2019-02-24T09:49:02.014Z,12.3
2019-02-24T09:50:02.993Z,11.3
2019-02-24T09:51:03.713Z,11.4
2019-02-24T09:52:04.446Z,11.2
2019-02-24T09:53:05.164Z,13.6
2019-02-24T09:54:05.901Z,12.3
2019-02-24T09:55:06.671Z,13.6
2019-02-24T09:56:07.354Z,11.2
2019-02-24T09:57:08.073Z,11.9
2019-02-24T09:58:08.804Z,11.6
2019-02-24T09:59:09.538Z,12.0
2019-02-24T10:00:10.309Z,12.9
2019-02-24T10:01:11.123Z,11.8
2019-02-24T10:02:11.768Z,12.0
2019-02-24T10:03:12.494Z,13.6
2019-02-24T10:04:13.227Z,12.7
2019-02-24T10:05:13.958Z,18.7
2019-02-24T10:06:14.698Z,13.0
2019-02-24T10:07:15.424Z,11.8
2019-02-24T10:08:16.148Z,11.4
2019-02-24T10:09:16.883Z,10.8
2019-02-24T10:10:17.617Z,10.7
2019-02-24T10:11:18.339Z,10.5
2019-02-24T10:12:19.072Z,9.9
2019-02-24T10:13:19.804Z,12.2
2019-02-24T10:14:20.541Z,11.4
2019-02-24T10:15:21.282Z,10.1
2019-02-24T10:16:22.013Z,10.6
2019-02-24T10:17:22.732Z,10.2
2019-02-24T10:18:23.464Z,8.7
2019-02-24T10:19:24.193Z,12.2
2019-02-24T10:20:24.929Z,9.5
2019-02-24T10:21:25.654Z,9.0
2019-02-24T10:22:26.385Z,8.8
2019-02-24T10:23:27.236Z,8.8
2019-02-24T10:24:27.831Z,8.4
2019-02-24T10:25:28.566Z,8.9
2019-02-24T10:26:29.290Z,9.8
2019-02-24T10:27:30.066Z,11.3
2019-02-24T10:28:30.792Z,10.7
2019-02-24T10:29:31.521Z,10.1
2019-02-24T10:30:32.252Z,9.9
2019-02-24T10:31:32.996Z,10.8
2019-02-24T10:32:33.722Z,11.7
2019-02-24T10:33:34.453Z,10.9
2019-02-24T10:34:35.177Z,10.3
2019-02-24T10:35:35.912Z,11.8
2019-02-24T10:36:36.648Z,9.9
2019-02-24T10:37:37.394Z,8.7
2019-02-24T10:38:38.130Z,7.9
2019-02-24T10:39:38.861Z,8.4
2019-02-24T10:40:39.585Z,8.0
2019-02-24T10:41:40.320Z,9.3
2019-02-24T10:42:41.042Z,9.0
2019-02-24T10:43:41.761Z,8.8
2019-02-24T10:44:42.509Z,8.6
2019-02-24T10:45:43.236Z,8.3
2019-02-24T10:46:43.966Z,8.9
2019-02-24T10:47:44.698Z,9.5
2019-02-24T10:48:45.433Z,9.1
2019-02-24T10:49:46.157Z,8.1
2019-02-24T10:50:46.956Z,8.5
2019-02-24T10:51:47.683Z,8.6
2019-02-24T10:52:48.414Z,9.0
2019-02-24T10:53:49.151Z,10.1
2019-02-24T10:54:49.890Z,8.6
2019-02-24T10:55:50.671Z,8.3
2019-02-24T10:56:51.407Z,7.7
2019-02-24T10:57:52.124Z,8.9
2019-02-24T10:58:52.850Z,7.1
2019-02-24T10:59:53.590Z,8.4
2019-02-24T11:00:54.370Z,12.0
2019-02-24T11:01:55.093Z,10.7
2019-02-24T11:02:55.816Z,8.3
2019-02-24T11:03:56.554Z,7.0
2019-02-24T11:04:57.285Z,7.8
2019-02-24T11:05:58.018Z,6.9
2019-02-24T11:06:58.746Z,10.3
2019-02-24T11:07:59.475Z,7.2
2019-02-24T11:09:00.197Z,8.2
2019-02-24T11:10:00.934Z,7.4
2019-02-24T11:11:01.670Z,8.4
2019-02-24T11:12:02.404Z,6.9
2019-02-24T11:13:03.380Z,7.6
2019-02-24T11:14:04.163Z,6.9
2019-02-24T11:15:04.894Z,7.4
2019-02-24T11:16:05.623Z,7.4
2019-02-24T11:17:06.602Z,8.0
2019-02-24T11:18:07.335Z,6.8
2019-02-24T11:19:08.060Z,10.0
2019-02-24T11:20:08.797Z,23.6
2019-02-24T11:21:09.534Z,8.7
2019-02-24T11:22:10.263Z,14.9
2019-02-24T11:23:10.988Z,7.1
2019-02-24T11:24:11.708Z,8.3
2019-02-24T11:25:12.453Z,9.6
2019-02-24T11:26:13.185Z,8.6
2019-02-24T11:27:13.924Z,7.5
2019-02-24T11:28:14.641Z,9.1
2019-02-24T11:29:15.380Z,7.5
2019-02-24T11:30:16.110Z,8.3
2019-02-24T11:31:16.830Z,7.2
2019-02-24T11:32:17.562Z,13.0
2019-02-24T11:33:18.337Z,6.6
2019-02-24T11:34:19.066Z,6.6
2019-02-24T11:35:19.791Z,7.4
2019-02-24T11:36:20.548Z,9.2
2019-02-24T11:37:21.275Z,9.9
2019-02-24T11:38:22.009Z,7.8
2019-02-24T11:39:22.738Z,7.7
2019-02-24T11:40:23.471Z,8.1
2019-02-24T11:41:24.208Z,9.2
2019-02-24T11:42:24.931Z,10.0
2019-02-24T11:43:25.655Z,10.5
2019-02-24T11:44:26.401Z,11.8
2019-02-24T11:45:27.125Z,13.0
2019-02-24T11:46:27.858Z,12.1
2019-02-24T11:47:28.598Z,13.1
2019-02-24T11:48:29.333Z,13.8
2019-02-24T11:49:30.058Z,13.9
2019-02-24T11:50:30.785Z,13.4
2019-02-24T11:51:31.512Z,14.3
2019-02-24T11:52:32.265Z,12.9
2019-02-24T11:53:33.009Z,18.3
2019-02-24T11:54:33.734Z,13.5
2019-02-24T11:55:34.463Z,13.1
2019-02-24T11:56:35.202Z,14.3
2019-02-24T11:57:36.202Z,16.9
2019-02-24T11:58:36.929Z,13.8
2019-02-24T11:59:37.669Z,13.3
2019-02-24T12:00:38.409Z,14.8
2019-02-24T12:01:47.293Z,13.3
2019-02-24T12:02:41.744Z,13.6
2019-02-24T12:03:40.598Z,13.6
2019-02-24T12:04:41.329Z,14.1
2019-02-24T12:05:42.063Z,13.5
2019-02-24T12:06:42.791Z,13.8
2019-02-24T12:07:43.534Z,15.2
2019-02-24T12:08:44.258Z,14.2
2019-02-24T12:09:44.991Z,13.2
2019-02-24T12:10:45.723Z,15.1
2019-02-24T12:11:46.508Z,13.6
2019-02-24T12:12:47.252Z,13.2
2019-02-24T12:13:48.234Z,14.1
2019-02-24T12:14:48.974Z,18.4
2019-02-24T12:15:49.963Z,12.7
2019-02-24T12:16:50.691Z,13.4
2019-02-24T12:17:51.425Z,14.8
2019-02-24T12:18:52.161Z,13.6
2019-02-24T12:19:52.889Z,14.3
2019-02-24T12:20:53.621Z,14.1
2019-02-24T12:21:54.340Z,14.2
2019-02-24T12:22:55.122Z,14.3
2019-02-24T12:23:55.858Z,14.8
2019-02-24T12:24:56.604Z,13.1
2019-02-24T12:25:57.332Z,14.3
2019-02-24T12:26:58.099Z,14.3
2019-02-24T12:27:58.832Z,14.3
2019-02-24T12:28:59.565Z,13.9
2019-02-24T12:30:00.321Z,15.0
2019-02-24T12:31:01.022Z,13.9
2019-02-24T12:32:01.754Z,12.9
2019-02-24T12:33:02.495Z,15.0
2019-02-24T12:34:03.232Z,13.3
2019-02-24T12:35:03.977Z,13.9
2019-02-24T12:36:04.716Z,13.2
2019-02-24T12:37:05.464Z,13.6
2019-02-24T12:38:06.200Z,12.6
2019-02-24T12:39:06.939Z,13.1
2019-02-24T12:40:07.780Z,14.5
2019-02-24T12:41:08.505Z,18.5
2019-02-24T12:42:09.237Z,14.9
2019-02-24T12:43:09.964Z,13.4
2019-02-24T12:44:10.701Z,12.7
2019-02-24T12:45:11.436Z,13.2
2019-02-24T12:46:12.176Z,14.8
2019-02-24T12:47:12.922Z,13.0
2019-02-24T12:48:13.648Z,13.7
2019-02-24T12:49:14.385Z,13.6
2019-02-24T12:50:15.134Z,14.1
2019-02-24T12:51:15.882Z,15.3
2019-02-24T12:52:17.322Z,12.8
2019-02-24T12:53:19.479Z,14.2
2019-02-24T12:54:21.696Z,17.4
2019-02-24T12:55:22.829Z,13.3
2019-02-24T12:56:23.932Z,13.2
2019-02-24T12:57:24.688Z,14.5
2019-02-24T12:58:25.840Z,14.3
2019-02-24T12:59:26.674Z,13.1
2019-02-24T13:00:27.614Z,13.1
2019-02-24T13:01:28.380Z,13.3
2019-02-24T13:02:29.473Z,13.4
2019-02-24T13:03:30.893Z,14.3
2019-02-24T13:04:31.781Z,13.5
2019-02-24T13:05:33.970Z,13.1
2019-02-24T13:06:35.094Z,14.3
2019-02-24T13:07:35.837Z,14.2
2019-02-24T13:08:37.031Z,14.5
2019-02-24T13:09:38.306Z,14.3
2019-02-24T13:10:39.075Z,14.9
2019-02-24T13:11:39.838Z,17.1
2019-02-24T13:12:40.634Z,91.0
2019-02-24T13:13:41.795Z,22.0
2019-02-24T13:14:42.608Z,17.6
2019-02-24T13:15:43.477Z,15.2
2019-02-24T13:16:44.221Z,14.9
2019-02-24T13:17:45.154Z,14.1
2019-02-24T13:18:46.367Z,17.1
2019-02-24T13:19:47.132Z,14.9
2019-02-24T13:20:48.064Z,16.6
2019-02-24T13:21:48.816Z,38.1
2019-02-24T13:22:49.661Z,14.3
2019-02-24T13:23:50.418Z,13.8
2019-02-24T13:24:51.176Z,13.4
2019-02-24T13:25:52.045Z,14.0
2019-02-24T13:26:52.789Z,12.9
2019-02-24T13:27:53.642Z,14.2
2019-02-24T13:28:54.817Z,14.8
2019-02-24T13:29:55.576Z,14.6
2019-02-24T13:30:56.347Z,15.5